createdAt,value
2022-10-20T00:00:54.174Z,100.00
2022-10-20T00:03:20.946Z,100.00
2022-10-20T00:05:47.832Z,100.00
2022-10-20T00:08:14.629Z,100.00
2022-10-20T00:10:41.345Z,100.00
2022-10-20T00:13:08.435Z,100.00
2022-10-20T00:15:35.333Z,100.00
2022-10-20T00:18:02.114Z,100.00
2022-10-20T00:20:28.810Z,100.00
2022-10-20T00:22:55.519Z,100.00
2022-10-20T00:25:22.171Z,100.00
2022-10-20T00:27:48.874Z,100.00
2022-10-20T00:30:15.614Z,100.00
2022-10-20T00:32:42.265Z,100.00
2022-10-20T00:35:09.369Z,100.00
2022-10-20T00:37:36.048Z,100.00
2022-10-20T00:40:02.714Z,100.00
2022-10-20T00:42:29.439Z,100.00
2022-10-20T00:44:59.718Z,100.00
2022-10-20T00:47:47.775Z,100.00
2022-10-20T00:50:25.879Z,100.00
2022-10-20T00:52:54.793Z,100.00
2022-10-20T00:55:25.777Z,100.00
2022-10-20T00:57:54.768Z,100.00
2022-10-20T01:00:22.068Z,100.00
2022-10-20T01:02:51.233Z,100.00
2022-10-20T01:05:18.263Z,100.00
2022-10-20T01:07:44.991Z,100.00
2022-10-20T01:10:12.424Z,100.00
2022-10-20T01:12:47.008Z,100.00
2022-10-20T01:15:16.593Z,100.00
2022-10-20T01:17:43.466Z,100.00
2022-10-20T01:20:16.045Z,100.00
2022-10-20T01:23:09.847Z,100.00
2022-10-20T01:25:36.446Z,100.00
2022-10-20T01:28:08.935Z,100.00
2022-10-20T01:30:42.897Z,100.00
2022-10-20T01:33:10.085Z,100.00
2022-10-20T01:35:46.060Z,100.00
2022-10-20T01:38:42.365Z,100.00
2022-10-20T01:41:21.771Z,100.00
2022-10-20T01:43:50.182Z,100.00
2022-10-20T01:46:21.782Z,100.00
2022-10-20T01:48:48.688Z,100.00
2022-10-20T01:51:15.368Z,100.00
2022-10-20T01:53:42.076Z,100.00
2022-10-20T01:56:18.059Z,100.00
2022-10-20T01:58:47.753Z,100.00
2022-10-20T02:01:46.428Z,100.00
2022-10-20T02:04:14.444Z,100.00
2022-10-20T02:07:04.581Z,100.00
2022-10-20T02:09:38.856Z,100.00
2022-10-20T02:12:34.800Z,100.00
2022-10-20T02:15:02.856Z,100.00
2022-10-20T02:17:29.668Z,100.00
2022-10-20T02:19:58.200Z,100.00
2022-10-20T02:22:25.904Z,100.00
2022-10-20T02:24:52.573Z,100.00
2022-10-20T02:27:22.639Z,100.00
2022-10-20T02:29:56.565Z,100.00
2022-10-20T02:32:24.870Z,100.00
2022-10-20T02:34:51.545Z,100.00
2022-10-20T02:37:18.412Z,100.00
2022-10-20T02:39:45.147Z,100.00
2022-10-20T02:42:12.757Z,100.00
2022-10-20T02:44:39.580Z,100.00
2022-10-20T02:47:06.327Z,100.00
2022-10-20T02:49:33.144Z,100.00
2022-10-20T02:51:59.860Z,100.00
2022-10-20T02:54:28.821Z,100.00
2022-10-20T02:56:56.007Z,100.00
2022-10-20T02:59:22.735Z,100.00
2022-10-20T03:01:51.366Z,100.00
2022-10-20T03:04:18.382Z,100.00
2022-10-20T03:06:45.115Z,100.00
2022-10-20T03:09:11.859Z,100.00
2022-10-20T03:11:38.539Z,100.00
2022-10-20T03:14:05.505Z,100.00
2022-10-20T03:16:32.214Z,100.00
2022-10-20T03:19:01.980Z,100.00
2022-10-20T03:21:34.268Z,100.00
2022-10-20T03:24:01.082Z,100.00
2022-10-20T03:26:27.986Z,100.00
2022-10-20T03:28:54.691Z,100.00
2022-10-20T03:31:21.500Z,100.00
2022-10-20T03:33:48.271Z,100.00
2022-10-20T03:36:14.923Z,100.00
2022-10-20T03:38:43.346Z,100.00
2022-10-20T03:41:10.468Z,100.00
2022-10-20T03:43:39.695Z,100.00
2022-10-20T03:46:09.566Z,100.00
2022-10-20T03:48:37.138Z,100.00
2022-10-20T03:51:05.062Z,100.00
2022-10-20T03:53:32.310Z,100.00
2022-10-20T03:55:59.433Z,100.00
2022-10-20T03:58:26.128Z,100.00
2022-10-20T04:00:53.199Z,100.00
2022-10-20T04:03:19.908Z,100.00
2022-10-20T04:05:46.648Z,100.00
2022-10-20T04:10:44.890Z,100.00
2022-10-20T04:13:11.583Z,100.00
2022-10-20T04:15:38.294Z,100.00
2022-10-20T04:18:05.047Z,100.00
2022-10-20T04:20:31.743Z,100.00
2022-10-20T04:22:58.431Z,100.00
2022-10-20T04:25:25.080Z,100.00
2022-10-20T04:27:51.780Z,100.00
2022-10-20T04:30:18.479Z,100.00
2022-10-20T04:32:45.195Z,100.00
2022-10-20T04:35:11.832Z,100.00
2022-10-20T04:37:38.787Z,100.00
2022-10-20T04:40:06.897Z,100.00
2022-10-20T04:42:33.624Z,100.00
2022-10-20T04:45:00.429Z,100.00
2022-10-20T04:47:31.964Z,100.00
2022-10-20T04:49:58.927Z,100.00
2022-10-20T04:52:25.626Z,100.00
2022-10-20T04:54:52.324Z,100.00
2022-10-20T04:57:19.070Z,100.00
2022-10-20T04:59:46.310Z,100.00
2022-10-20T05:02:13.032Z,100.00
2022-10-20T05:04:39.962Z,100.00
2022-10-20T05:07:06.676Z,100.00
2022-10-20T05:09:33.492Z,100.00
2022-10-20T05:12:00.460Z,100.00
2022-10-20T05:14:27.242Z,100.00
2022-10-20T05:16:54.116Z,100.00
2022-10-20T05:19:20.989Z,100.00
2022-10-20T05:21:47.710Z,100.00
2022-10-20T05:24:20.082Z,100.00
2022-10-20T05:26:49.017Z,100.00
2022-10-20T05:29:15.811Z,100.00
2022-10-20T05:31:43.786Z,100.00
2022-10-20T05:34:11.493Z,100.00
2022-10-20T05:36:38.192Z,100.00
2022-10-20T05:39:05.324Z,100.00
2022-10-20T05:41:36.471Z,100.00
2022-10-20T05:44:08.682Z,100.00
2022-10-20T05:46:41.865Z,100.00
2022-10-20T05:49:14.391Z,100.00
2022-10-20T05:51:41.542Z,100.00
2022-10-20T05:54:11.440Z,100.00
2022-10-20T05:56:38.373Z,100.00
2022-10-20T05:59:05.066Z,100.00
2022-10-20T06:01:40.500Z,100.00
2022-10-20T06:04:10.739Z,100.00
2022-10-20T06:06:37.621Z,100.00
2022-10-20T06:09:06.761Z,100.00
2022-10-20T06:11:37.101Z,100.00
2022-10-20T06:14:06.241Z,100.00
2022-10-20T06:16:32.985Z,100.00
2022-10-20T06:19:00.097Z,100.00
2022-10-20T06:21:29.821Z,100.00
2022-10-20T06:23:59.550Z,100.00
2022-10-20T06:26:33.009Z,100.00
2022-10-20T06:29:04.298Z,100.00
2022-10-20T06:31:39.265Z,100.00
2022-10-20T06:34:08.577Z,100.00
2022-10-20T06:36:37.071Z,100.00
2022-10-20T06:39:06.228Z,100.00
2022-10-20T06:41:33.603Z,100.00
2022-10-20T06:44:00.443Z,100.00
2022-10-20T06:46:29.107Z,100.00
2022-10-20T06:48:58.673Z,100.00
2022-10-20T06:51:26.342Z,100.00
2022-10-20T06:53:53.316Z,100.00
2022-10-20T06:56:23.253Z,100.00
2022-10-20T06:58:51.904Z,100.00
2022-10-20T07:01:23.427Z,100.00
2022-10-20T07:03:51.180Z,100.00
2022-10-20T07:06:21.565Z,100.00
2022-10-20T07:08:49.259Z,100.00
2022-10-20T07:11:18.821Z,100.00
2022-10-20T07:13:46.427Z,100.00
2022-10-20T07:16:15.493Z,100.00
2022-10-20T07:21:13.327Z,100.00
2022-10-20T07:23:40.753Z,92.20
2022-10-20T07:26:08.747Z,78.92
2022-10-20T07:28:36.624Z,71.35
2022-10-20T07:31:06.504Z,70.12
2022-10-20T07:33:33.847Z,70.58
2022-10-20T07:36:01.037Z,70.69
2022-10-20T07:38:28.173Z,71.33
2022-10-20T07:41:02.906Z,64.72
2022-10-20T07:43:29.606Z,61.56
2022-10-20T07:45:56.575Z,61.21
2022-10-20T07:48:23.294Z,56.46
2022-10-20T07:50:50.004Z,52.53
2022-10-20T07:53:16.746Z,48.87
2022-10-20T07:55:43.434Z,50.35
2022-10-20T07:58:10.184Z,55.57
2022-10-20T08:00:37.025Z,49.52
2022-10-20T08:03:04.264Z,48.20
2022-10-20T08:05:30.968Z,47.96
2022-10-20T08:07:58.266Z,46.34
2022-10-20T08:10:25.309Z,44.74
2022-10-20T08:12:51.962Z,46.33
2022-10-20T08:15:18.701Z,47.76
2022-10-20T08:17:45.434Z,47.00
2022-10-20T08:20:27.208Z,44.22
2022-10-20T08:22:54.128Z,49.57
2022-10-20T08:25:20.908Z,48.39
2022-10-20T08:27:47.614Z,41.83
2022-10-20T08:30:29.420Z,41.82
2022-10-20T08:32:56.267Z,40.88
2022-10-20T08:35:23.376Z,42.92
2022-10-20T08:37:50.455Z,38.96
2022-10-20T08:40:21.294Z,41.18
2022-10-20T08:42:48.830Z,41.79
2022-10-20T08:45:21.084Z,39.48
2022-10-20T08:47:52.335Z,37.94
2022-10-20T08:50:19.915Z,37.80
2022-10-20T08:52:49.885Z,41.46
2022-10-20T08:55:26.472Z,43.41
2022-10-20T08:57:58.790Z,43.83
2022-10-20T09:00:26.127Z,44.59
2022-10-20T09:02:53.065Z,50.99
2022-10-20T09:05:24.514Z,56.16
2022-10-20T09:07:52.218Z,54.07
2022-10-20T09:10:36.049Z,58.12
2022-10-20T09:13:11.460Z,56.38
2022-10-20T09:15:38.825Z,57.34
2022-10-20T09:18:10.661Z,57.96
2022-10-20T09:20:46.119Z,56.96
2022-10-20T09:23:39.304Z,54.67
2022-10-20T09:26:03.331Z,52.41
2022-10-20T09:28:35.663Z,54.48
2022-10-20T09:31:45.560Z,52.88
2022-10-20T09:34:27.483Z,51.48
2022-10-20T09:37:16.556Z,50.27
2022-10-20T09:39:55.374Z,47.70
2022-10-20T09:42:31.701Z,47.92
2022-10-20T09:45:02.595Z,48.18
2022-10-20T09:47:29.955Z,49.15
2022-10-20T09:50:02.999Z,49.50
2022-10-20T09:52:35.239Z,51.04
2022-10-20T09:55:16.374Z,49.06
2022-10-20T09:57:47.857Z,50.13
2022-10-20T10:00:37.656Z,50.18
2022-10-20T10:03:21.630Z,49.16
2022-10-20T10:05:55.590Z,48.66
2022-10-20T10:08:25.269Z,50.53
2022-10-20T10:11:04.169Z,49.45
2022-10-20T10:13:45.266Z,50.02
2022-10-20T10:16:17.813Z,51.83
2022-10-20T10:19:02.538Z,48.37
2022-10-20T10:21:45.618Z,46.98
2022-10-20T10:24:36.553Z,47.37
2022-10-20T10:27:03.768Z,48.55
2022-10-20T10:29:34.470Z,48.62
2022-10-20T10:32:02.172Z,53.41
2022-10-20T10:34:52.025Z,53.62
2022-10-20T10:39:51.312Z,46.92
2022-10-20T10:42:43.322Z,49.36
2022-10-20T10:45:12.797Z,45.81
2022-10-20T10:48:13.145Z,47.61
2022-10-20T10:51:02.774Z,47.12
2022-10-20T10:53:57.425Z,52.94
2022-10-20T10:56:40.791Z,50.13
2022-10-20T10:59:29.085Z,49.80
2022-10-20T11:02:14.387Z,48.21
2022-10-20T11:05:17.265Z,47.51
2022-10-20T11:08:28.213Z,46.64
2022-10-20T11:11:23.675Z,47.30
2022-10-20T11:16:57.306Z,50.07
2022-10-20T11:19:31.691Z,46.05
2022-10-20T11:22:14.704Z,46.77
2022-10-20T11:25:11.235Z,45.38
2022-10-20T11:27:39.166Z,45.03
2022-10-20T11:30:24.113Z,47.76
2022-10-20T11:33:06.037Z,45.40
2022-10-20T11:35:58.905Z,47.44
2022-10-20T11:38:47.184Z,46.05
2022-10-20T11:41:43.795Z,45.41
2022-10-20T11:44:30.855Z,48.45
2022-10-20T11:47:06.221Z,48.32
2022-10-20T11:49:34.058Z,46.07
2022-10-20T11:52:12.640Z,46.92
2022-10-20T11:55:05.117Z,49.60
2022-10-20T11:57:43.857Z,46.57
2022-10-20T12:00:28.547Z,47.67
2022-10-20T12:03:42.386Z,45.07
2022-10-20T12:06:24.229Z,45.31
2022-10-20T12:09:03.564Z,47.01
2022-10-20T12:11:39.294Z,47.94
2022-10-20T12:14:15.056Z,45.37
2022-10-20T12:16:59.919Z,43.51
2022-10-20T12:19:31.530Z,44.69
2022-10-20T12:22:01.264Z,45.21
2022-10-20T12:24:30.884Z,45.29
2022-10-20T12:27:09.435Z,44.18
2022-10-20T12:29:36.013Z,45.84
2022-10-20T12:32:27.669Z,46.22
2022-10-20T12:34:58.389Z,45.38
2022-10-20T12:37:25.015Z,49.57
2022-10-20T12:39:54.251Z,46.84
2022-10-20T12:42:26.517Z,44.46
2022-10-20T12:44:54.250Z,47.12
2022-10-20T12:47:27.418Z,45.79
2022-10-20T12:50:01.628Z,45.69
2022-10-20T12:52:32.633Z,45.56
2022-10-20T12:55:23.452Z,43.99
2022-10-20T12:58:12.599Z,45.63
2022-10-20T13:00:39.264Z,46.60
2022-10-20T13:03:31.664Z,45.76
2022-10-20T13:05:59.973Z,44.51
2022-10-20T13:08:32.971Z,46.28
2022-10-20T13:11:45.007Z,49.20
2022-10-20T13:14:17.841Z,44.96
2022-10-20T13:16:57.291Z,44.90
2022-10-20T13:19:36.639Z,49.77
2022-10-20T13:22:41.010Z,47.83
2022-10-20T13:25:31.761Z,48.81
2022-10-20T13:28:26.431Z,46.43
2022-10-20T13:30:53.069Z,48.58
2022-10-20T13:34:05.025Z,46.46
2022-10-20T13:36:38.245Z,46.55
2022-10-20T13:39:26.405Z,50.74
2022-10-20T13:42:37.420Z,47.56
2022-10-20T13:45:31.910Z,49.40
2022-10-20T13:48:13.611Z,48.70
2022-10-20T13:50:43.165Z,51.26
2022-10-20T13:53:33.088Z,51.39
2022-10-20T13:56:02.958Z,52.27
2022-10-20T13:58:30.197Z,50.02
2022-10-20T14:01:27.100Z,50.77
2022-10-20T14:03:53.975Z,51.92
2022-10-20T14:06:32.179Z,53.42
2022-10-20T14:09:11.109Z,53.45
2022-10-20T14:11:38.587Z,53.43
2022-10-20T14:14:05.268Z,55.62
2022-10-20T14:16:33.035Z,54.37
2022-10-20T14:19:09.385Z,54.73
2022-10-20T14:21:43.153Z,54.69
2022-10-20T14:24:19.263Z,55.58
2022-10-20T14:26:46.179Z,54.27
2022-10-20T14:29:16.013Z,54.28
2022-10-20T14:31:43.291Z,55.72
2022-10-20T14:34:23.294Z,52.92
2022-10-20T14:36:50.987Z,57.58
2022-10-20T14:39:36.650Z,57.74
2022-10-20T14:42:21.135Z,55.19
2022-10-20T14:44:49.251Z,56.76
2022-10-20T14:47:16.873Z,55.03
2022-10-20T14:49:51.466Z,56.38
2022-10-20T14:52:22.574Z,57.03
2022-10-20T14:54:51.587Z,58.29
2022-10-20T14:57:18.609Z,55.93
2022-10-20T14:59:56.041Z,55.69
2022-10-20T15:02:25.523Z,55.96
2022-10-20T15:04:53.048Z,57.12
2022-10-20T15:07:27.800Z,56.26
2022-10-20T15:10:00.323Z,55.96
2022-10-20T15:12:36.573Z,55.39
2022-10-20T15:15:10.968Z,61.31
2022-10-20T15:17:45.910Z,59.37
2022-10-20T15:20:32.517Z,60.53
2022-10-20T15:23:12.785Z,61.30
2022-10-20T15:25:45.443Z,62.00
2022-10-20T15:28:50.748Z,62.63
2022-10-20T15:31:22.183Z,65.62
2022-10-20T15:33:49.720Z,64.13
2022-10-20T15:36:22.205Z,63.51
2022-10-20T15:38:49.910Z,63.59
2022-10-20T15:41:27.496Z,64.80
2022-10-20T15:43:54.482Z,65.82
2022-10-20T15:46:22.140Z,69.33
2022-10-20T15:48:49.178Z,70.83
2022-10-20T15:51:27.658Z,69.43
2022-10-20T15:53:54.610Z,71.71
2022-10-20T15:56:21.886Z,73.71
2022-10-20T15:58:51.966Z,74.33
2022-10-20T16:01:21.128Z,74.68
2022-10-20T16:03:48.459Z,75.37
2022-10-20T16:06:18.068Z,77.20
2022-10-20T16:08:47.694Z,77.39
2022-10-20T16:11:15.820Z,80.54
2022-10-20T16:13:42.922Z,78.94
2022-10-20T16:16:13.582Z,78.41
2022-10-20T16:18:40.268Z,79.14
2022-10-20T16:21:07.494Z,79.87
2022-10-20T16:23:42.186Z,79.38
2022-10-20T16:26:13.202Z,82.46
2022-10-20T16:28:40.297Z,82.89
2022-10-20T16:31:09.786Z,82.17
2022-10-20T16:33:37.078Z,82.35
2022-10-20T16:38:39.111Z,85.45
2022-10-20T16:41:10.510Z,84.64
2022-10-20T16:43:39.463Z,85.02
2022-10-20T16:46:07.746Z,88.06
2022-10-20T16:48:37.031Z,89.81
2022-10-20T16:51:10.018Z,88.24
2022-10-20T16:53:37.224Z,88.47
2022-10-20T16:56:04.410Z,88.27
2022-10-20T16:58:31.496Z,89.06
2022-10-20T17:01:11.377Z,89.71
2022-10-20T17:06:16.520Z,94.52
2022-10-20T17:08:43.879Z,93.47
2022-10-20T17:11:14.492Z,93.57
2022-10-20T17:13:41.772Z,92.29
2022-10-20T17:16:14.900Z,93.79
2022-10-20T17:18:42.453Z,93.87
2022-10-20T17:21:11.379Z,94.60
2022-10-20T17:23:45.279Z,95.11
2022-10-20T17:26:18.948Z,95.96
2022-10-20T17:28:46.286Z,95.70
2022-10-20T17:33:49.249Z,95.39
2022-10-20T17:36:16.788Z,94.89
2022-10-20T17:38:44.234Z,94.69
2022-10-20T17:41:16.308Z,95.85
2022-10-20T17:43:43.594Z,96.90
2022-10-20T17:46:15.993Z,96.41
2022-10-20T17:48:43.258Z,97.35
2022-10-20T17:51:23.039Z,98.64
2022-10-20T17:53:52.429Z,99.58
2022-10-20T17:56:22.519Z,98.86
2022-10-20T17:58:51.641Z,98.92
2022-10-20T18:01:23.756Z,100.00
2022-10-20T18:04:02.049Z,100.00
2022-10-20T18:06:34.153Z,99.78
2022-10-20T18:09:07.020Z,100.00
2022-10-20T18:11:35.663Z,100.00
2022-10-20T18:14:03.438Z,100.00
2022-10-20T18:16:34.190Z,100.00
2022-10-20T18:19:05.228Z,100.00
2022-10-20T18:21:32.836Z,100.00
2022-10-20T18:24:06.648Z,100.00
2022-10-20T18:26:35.991Z,100.00
2022-10-20T18:29:06.732Z,100.00
2022-10-20T18:31:36.696Z,100.00
2022-10-20T18:34:07.711Z,100.00
2022-10-20T18:36:40.377Z,100.00
2022-10-20T18:39:11.123Z,100.00
2022-10-20T18:41:40.775Z,100.00
2022-10-20T18:44:11.871Z,100.00
2022-10-20T18:46:39.671Z,100.00
2022-10-20T18:49:08.751Z,100.00
2022-10-20T18:51:36.614Z,100.00
2022-10-20T18:54:05.421Z,100.00
2022-10-20T18:56:34.021Z,100.00
2022-10-20T18:59:06.195Z,100.00
2022-10-20T19:01:36.099Z,100.00
2022-10-20T19:04:04.740Z,100.00
2022-10-20T19:06:37.552Z,100.00
2022-10-20T19:09:11.327Z,100.00
2022-10-20T19:11:40.017Z,100.00
2022-10-20T19:14:10.370Z,100.00
2022-10-20T19:16:39.109Z,100.00
2022-10-20T19:19:08.069Z,100.00
2022-10-20T19:21:36.834Z,100.00
2022-10-20T19:24:08.240Z,100.00
2022-10-20T19:26:41.390Z,100.00
2022-10-20T19:29:12.322Z,100.00
2022-10-20T19:31:48.253Z,100.00
2022-10-20T19:34:25.480Z,100.00
2022-10-20T19:36:56.704Z,100.00
2022-10-20T19:39:33.313Z,100.00
2022-10-20T19:42:02.177Z,100.00
2022-10-20T19:44:30.086Z,100.00
2022-10-20T19:46:58.579Z,100.00
2022-10-20T19:49:26.922Z,100.00
2022-10-20T19:51:54.153Z,100.00
2022-10-20T19:54:21.460Z,100.00
2022-10-20T19:56:48.718Z,100.00
2022-10-20T19:59:15.489Z,100.00
2022-10-20T20:01:42.682Z,100.00
2022-10-20T20:04:11.330Z,100.00
2022-10-20T20:06:38.381Z,100.00
2022-10-20T20:09:08.036Z,100.00
2022-10-20T20:11:36.659Z,100.00
2022-10-20T20:14:07.734Z,100.00
2022-10-20T20:16:35.500Z,100.00
2022-10-20T20:19:03.113Z,100.00
2022-10-20T20:21:30.498Z,100.00
2022-10-20T20:24:00.513Z,100.00
2022-10-20T20:26:34.472Z,100.00
2022-10-20T20:29:02.543Z,100.00
2022-10-20T20:31:29.743Z,100.00
2022-10-20T20:33:57.410Z,100.00
2022-10-20T20:36:27.232Z,100.00
2022-10-20T20:38:57.321Z,100.00
2022-10-20T20:41:26.970Z,100.00
2022-10-20T20:43:54.478Z,100.00
2022-10-20T20:46:23.065Z,100.00
2022-10-20T20:48:50.441Z,100.00
2022-10-20T20:51:17.513Z,100.00
2022-10-20T20:53:44.505Z,100.00
2022-10-20T20:56:13.496Z,100.00
2022-10-20T20:58:42.319Z,100.00
2022-10-20T21:01:19.574Z,100.00
2022-10-20T21:03:46.914Z,100.00
2022-10-20T21:06:16.443Z,100.00
2022-10-20T21:08:46.483Z,100.00
2022-10-20T21:11:18.999Z,100.00
2022-10-20T21:13:47.547Z,100.00
2022-10-20T21:16:16.104Z,100.00
2022-10-20T21:18:46.404Z,100.00
2022-10-20T21:21:15.881Z,100.00
2022-10-20T21:23:43.473Z,100.00
2022-10-20T21:26:12.988Z,100.00
2022-10-20T21:28:41.165Z,100.00
2022-10-20T21:31:11.523Z,100.00
2022-10-20T21:33:39.343Z,100.00
2022-10-20T21:36:09.565Z,100.00
2022-10-20T21:38:37.611Z,100.00
2022-10-20T21:41:19.817Z,100.00
2022-10-20T21:43:50.109Z,100.00
2022-10-20T21:46:21.456Z,100.00
2022-10-20T21:48:50.355Z,100.00
2022-10-20T21:51:20.243Z,100.00
2022-10-20T21:53:47.908Z,100.00
2022-10-20T21:56:15.197Z,100.00
2022-10-20T21:58:42.574Z,100.00
2022-10-20T22:01:14.450Z,100.00
2022-10-20T22:03:41.698Z,100.00
2022-10-20T22:06:11.082Z,100.00
2022-10-20T22:08:43.614Z,100.00
2022-10-20T22:11:13.512Z,100.00
2022-10-20T22:13:40.585Z,100.00
2022-10-20T22:16:11.834Z,100.00
2022-10-20T22:18:38.572Z,100.00
2022-10-20T22:21:09.861Z,100.00
2022-10-20T22:23:39.302Z,100.00
2022-10-20T22:26:06.388Z,100.00
2022-10-20T22:28:33.577Z,100.00
2022-10-20T22:33:28.029Z,100.00
2022-10-20T22:35:54.784Z,100.00
2022-10-20T22:38:21.545Z,100.00
2022-10-20T22:40:48.223Z,100.00
2022-10-20T22:43:15.103Z,100.00
2022-10-20T22:45:41.902Z,100.00
2022-10-20T22:48:08.620Z,100.00
2022-10-20T22:50:35.348Z,100.00
2022-10-20T22:53:02.038Z,100.00
2022-10-20T22:55:28.754Z,100.00
2022-10-20T22:57:55.484Z,100.00
2022-10-20T23:00:22.205Z,100.00
2022-10-20T23:02:48.876Z,100.00
2022-10-20T23:05:15.568Z,100.00
2022-10-20T23:07:42.355Z,100.00
2022-10-20T23:10:09.179Z,100.00
2022-10-20T23:12:36.277Z,100.00
2022-10-20T23:15:03.708Z,100.00
2022-10-20T23:17:30.495Z,100.00
2022-10-20T23:19:57.267Z,100.00
2022-10-20T23:22:24.206Z,100.00
2022-10-20T23:24:50.865Z,100.00
2022-10-20T23:27:17.580Z,100.00
2022-10-20T23:29:44.291Z,100.00
2022-10-20T23:32:11.079Z,100.00
2022-10-20T23:34:37.797Z,100.00
2022-10-20T23:37:04.464Z,100.00
2022-10-20T23:39:31.130Z,100.00
2022-10-20T23:41:57.886Z,100.00
2022-10-20T23:44:24.575Z,100.00
2022-10-20T23:46:52.154Z,100.00
2022-10-20T23:49:18.855Z,100.00
2022-10-20T23:51:45.602Z,100.00
2022-10-20T23:54:12.370Z,100.00
2022-10-20T23:56:39.059Z,100.00
2022-10-20T23:59:05.770Z,100.00
